sensor_id;sensor_type;location;lat;lon;timestamp;temperature;humidity
29241;DHT22;16268;49.880;8.648;2022-12-07T00:01:07;5.40;99.90
29241;DHT22;16268;49.880;8.648;2022-12-07T00:03:33;5.40;99.90
29241;DHT22;16268;49.880;8.648;2022-12-07T00:06:00;5.30;99.90
29241;DHT22;16268;49.880;8.648;2022-12-07T00:08:26;5.30;99.90
29241;DHT22;16268;49.880;8.648;2022-12-07T00:10:52;5.40;99.90
29241;DHT22;16268;49.880;8.648;2022-12-07T00:13:17;5.40;99.90
29241;DHT22;16268;49.880;8.648;2022-12-07T00:15:44;5.30;99.90
29241;DHT22;16268;49.880;8.648;2022-12-07T00:18:09;5.30;99.90
29241;DHT22;16268;49.880;8.648;2022-12-07T00:20:35;5.40;99.90
29241;DHT22;16268;49.880;8.648;2022-12-07T00:23:00;5.40;99.90
29241;DHT22;16268;49.880;8.648;2022-12-07T00:25:26;5.30;99.90
29241;DHT22;16268;49.880;8.648;2022-12-07T00:27:53;5.30;99.90
29241;DHT22;16268;49.880;8.648;2022-12-07T00:30:21;5.20;99.90
29241;DHT22;16268;49.880;8.648;2022-12-07T00:32:46;5.20;99.90
29241;DHT22;16268;49.880;8.648;2022-12-07T00:35:12;5.30;99.90
29241;DHT22;16268;49.880;8.648;2022-12-07T00:37:38;5.30;99.90
29241;DHT22;16268;49.880;8.648;2022-12-07T00:40:04;5.30;99.90
29241;DHT22;16268;49.880;8.648;2022-12-07T00:42:29;5.20;99.90
29241;DHT22;16268;49.880;8.648;2022-12-07T00:44:55;5.10;99.90
29241;DHT22;16268;49.880;8.648;2022-12-07T00:47:20;5.10;99.90
29241;DHT22;16268;49.880;8.648;2022-12-07T00:49:46;5.20;99.90
29241;DHT22;16268;49.880;8.648;2022-12-07T00:52:11;5.10;99.90
29241;DHT22;16268;49.880;8.648;2022-12-07T00:54:37;5.10;99.90
29241;DHT22;16268;49.880;8.648;2022-12-07T00:57:03;5.10;99.90
29241;DHT22;16268;49.880;8.648;2022-12-07T00:59:28;5.00;99.90
29241;DHT22;16268;49.880;8.648;2022-12-07T01:01:54;5.00;99.90
29241;DHT22;16268;49.880;8.648;2022-12-07T01:04:19;5.00;99.90
29241;DHT22;16268;49.880;8.648;2022-12-07T01:06:45;5.00;99.90
29241;DHT22;16268;49.880;8.648;2022-12-07T01:09:10;4.90;99.90
29241;DHT22;16268;49.880;8.648;2022-12-07T01:11:36;4.90;99.90
29241;DHT22;16268;49.880;8.648;2022-12-07T01:14:02;4.90;99.90
29241;DHT22;16268;49.880;8.648;2022-12-07T01:16:29;4.90;99.90
29241;DHT22;16268;49.880;8.648;2022-12-07T01:18:56;4.80;99.90
29241;DHT22;16268;49.880;8.648;2022-12-07T01:21:31;4.80;99.90
29241;DHT22;16268;49.880;8.648;2022-12-07T01:24:01;4.80;99.90
29241;DHT22;16268;49.880;8.648;2022-12-07T01:26:27;4.80;99.90
29241;DHT22;16268;49.880;8.648;2022-12-07T01:28:53;4.90;99.90
29241;DHT22;16268;49.880;8.648;2022-12-07T01:31:22;4.90;99.90
29241;DHT22;16268;49.880;8.648;2022-12-07T01:33:54;4.80;99.90
29241;DHT22;16268;49.880;8.648;2022-12-07T01:36:28;4.90;99.90
29241;DHT22;16268;49.880;8.648;2022-12-07T01:38:57;4.90;99.90
29241;DHT22;16268;49.880;8.648;2022-12-07T01:41:25;4.90;99.90
29241;DHT22;16268;49.880;8.648;2022-12-07T01:44:11;4.90;99.90
29241;DHT22;16268;49.880;8.648;2022-12-07T01:46:39;4.90;99.90
29241;DHT22;16268;49.880;8.648;2022-12-07T01:49:08;4.80;99.90
29241;DHT22;16268;49.880;8.648;2022-12-07T01:51:34;4.90;99.90
29241;DHT22;16268;49.880;8.648;2022-12-07T01:54:02;4.80;99.90
29241;DHT22;16268;49.880;8.648;2022-12-07T01:56:29;4.80;99.90
29241;DHT22;16268;49.880;8.648;2022-12-07T01:58:57;4.80;99.90
29241;DHT22;16268;49.880;8.648;2022-12-07T02:01:24;4.80;99.90
29241;DHT22;16268;49.880;8.648;2022-12-07T02:03:49;4.80;99.90
29241;DHT22;16268;49.880;8.648;2022-12-07T02:06:19;4.90;99.90
29241;DHT22;16268;49.880;8.648;2022-12-07T02:08:46;4.90;99.90
29241;DHT22;16268;49.880;8.648;2022-12-07T02:11:12;5.00;99.90
29241;DHT22;16268;49.880;8.648;2022-12-07T02:13:40;5.00;99.90
29241;DHT22;16268;49.880;8.648;2022-12-07T02:19:39;4.90;99.90
29241;DHT22;16268;49.880;8.648;2022-12-07T02:25:04;4.80;99.90
29241;DHT22;16268;49.880;8.648;2022-12-07T02:27:51;4.80;99.90
29241;DHT22;16268;49.880;8.648;2022-12-07T02:30:20;4.80;99.90
29241;DHT22;16268;49.880;8.648;2022-12-07T02:32:51;4.80;99.90
29241;DHT22;16268;49.880;8.648;2022-12-07T02:35:20;4.80;99.90
29241;DHT22;16268;49.880;8.648;2022-12-07T02:38:02;4.80;99.90
29241;DHT22;16268;49.880;8.648;2022-12-07T02:40:43;4.80;99.90
29241;DHT22;16268;49.880;8.648;2022-12-07T02:43:10;4.80;99.90
29241;DHT22;16268;49.880;8.648;2022-12-07T02:45:39;4.80;99.90
29241;DHT22;16268;49.880;8.648;2022-12-07T02:48:07;4.80;99.90
29241;DHT22;16268;49.880;8.648;2022-12-07T02:50:34;4.80;99.90
29241;DHT22;16268;49.880;8.648;2022-12-07T02:52:59;4.80;99.90
29241;DHT22;16268;49.880;8.648;2022-12-07T02:55:29;4.80;99.90
29241;DHT22;16268;49.880;8.648;2022-12-07T02:58:15;4.80;99.90
29241;DHT22;16268;49.880;8.648;2022-12-07T03:00:59;4.80;99.90
29241;DHT22;16268;49.880;8.648;2022-12-07T03:03:28;4.80;99.90
29241;DHT22;16268;49.880;8.648;2022-12-07T03:06:30;4.80;99.90
29241;DHT22;16268;49.880;8.648;2022-12-07T03:09:19;4.80;99.90
29241;DHT22;16268;49.880;8.648;2022-12-07T03:11:57;4.80;99.90
29241;DHT22;16268;49.880;8.648;2022-12-07T03:14:30;4.80;99.90
29241;DHT22;16268;49.880;8.648;2022-12-07T03:17:13;4.80;99.90
29241;DHT22;16268;49.880;8.648;2022-12-07T03:19:41;4.90;99.90
29241;DHT22;16268;49.880;8.648;2022-12-07T03:22:09;4.80;99.90
29241;DHT22;16268;49.880;8.648;2022-12-07T03:24:44;4.90;99.90
29241;DHT22;16268;49.880;8.648;2022-12-07T03:27:16;4.90;99.90
29241;DHT22;16268;49.880;8.648;2022-12-07T03:30:04;4.80;99.90
29241;DHT22;16268;49.880;8.648;2022-12-07T03:32:37;4.90;99.90
29241;DHT22;16268;49.880;8.648;2022-12-07T03:35:07;4.80;99.90
29241;DHT22;16268;49.880;8.648;2022-12-07T03:37:39;4.90;99.90
29241;DHT22;16268;49.880;8.648;2022-12-07T03:40:25;4.90;99.90
29241;DHT22;16268;49.880;8.648;2022-12-07T03:42:51;4.90;99.90
29241;DHT22;16268;49.880;8.648;2022-12-07T03:45:18;4.90;99.90
29241;DHT22;16268;49.880;8.648;2022-12-07T03:47:55;4.80;99.90
29241;DHT22;16268;49.880;8.648;2022-12-07T03:53:34;4.90;99.90
29241;DHT22;16268;49.880;8.648;2022-12-07T03:56:01;4.90;99.90
29241;DHT22;16268;49.880;8.648;2022-12-07T03:58:28;4.90;99.90
29241;DHT22;16268;49.880;8.648;2022-12-07T04:00:55;4.90;99.90
29241;DHT22;16268;49.880;8.648;2022-12-07T04:03:23;4.90;99.90
29241;DHT22;16268;49.880;8.648;2022-12-07T04:05:49;4.80;99.90
29241;DHT22;16268;49.880;8.648;2022-12-07T04:08:14;4.80;99.90
29241;DHT22;16268;49.880;8.648;2022-12-07T04:10:40;4.70;99.90
29241;DHT22;16268;49.880;8.648;2022-12-07T04:13:05;4.70;99.90
29241;DHT22;16268;49.880;8.648;2022-12-07T04:15:31;4.70;99.90
29241;DHT22;16268;49.880;8.648;2022-12-07T04:17:57;4.70;99.90
29241;DHT22;16268;49.880;8.648;2022-12-07T04:20:23;4.70;99.90
29241;DHT22;16268;49.880;8.648;2022-12-07T04:22:49;4.70;99.90
29241;DHT22;16268;49.880;8.648;2022-12-07T04:25:14;4.70;99.90
29241;DHT22;16268;49.880;8.648;2022-12-07T04:27:40;4.70;99.90
29241;DHT22;16268;49.880;8.648;2022-12-07T04:30:06;4.70;99.90
29241;DHT22;16268;49.880;8.648;2022-12-07T04:32:32;4.80;99.90
29241;DHT22;16268;49.880;8.648;2022-12-07T04:34:57;4.80;99.90
29241;DHT22;16268;49.880;8.648;2022-12-07T04:37:24;4.80;99.90
29241;DHT22;16268;49.880;8.648;2022-12-07T04:39:49;4.80;99.90
29241;DHT22;16268;49.880;8.648;2022-12-07T04:42:15;4.80;99.90
29241;DHT22;16268;49.880;8.648;2022-12-07T04:44:41;4.80;99.90
29241;DHT22;16268;49.880;8.648;2022-12-07T04:47:06;4.80;99.90
29241;DHT22;16268;49.880;8.648;2022-12-07T04:49:32;4.80;99.90
29241;DHT22;16268;49.880;8.648;2022-12-07T04:51:58;4.70;99.90
29241;DHT22;16268;49.880;8.648;2022-12-07T04:54:23;4.80;99.90
29241;DHT22;16268;49.880;8.648;2022-12-07T04:56:49;4.80;99.90
29241;DHT22;16268;49.880;8.648;2022-12-07T04:59:16;4.70;99.90
29241;DHT22;16268;49.880;8.648;2022-12-07T05:01:42;4.70;99.90
29241;DHT22;16268;49.880;8.648;2022-12-07T05:04:08;4.70;99.90
29241;DHT22;16268;49.880;8.648;2022-12-07T05:06:35;4.70;99.90
29241;DHT22;16268;49.880;8.648;2022-12-07T05:09:01;4.70;99.90
29241;DHT22;16268;49.880;8.648;2022-12-07T05:11:27;4.70;99.90
29241;DHT22;16268;49.880;8.648;2022-12-07T05:14:16;4.70;99.90
29241;DHT22;16268;49.880;8.648;2022-12-07T05:16:43;4.70;99.90
29241;DHT22;16268;49.880;8.648;2022-12-07T05:19:09;4.70;99.90
29241;DHT22;16268;49.880;8.648;2022-12-07T05:21:36;4.70;99.90
29241;DHT22;16268;49.880;8.648;2022-12-07T05:24:02;4.70;99.90
29241;DHT22;16268;49.880;8.648;2022-12-07T05:26:28;4.70;99.90
29241;DHT22;16268;49.880;8.648;2022-12-07T05:28:55;4.70;99.90
29241;DHT22;16268;49.880;8.648;2022-12-07T05:31:23;4.70;99.90
29241;DHT22;16268;49.880;8.648;2022-12-07T05:33:49;4.70;99.90
29241;DHT22;16268;49.880;8.648;2022-12-07T05:36:15;4.70;99.90
29241;DHT22;16268;49.880;8.648;2022-12-07T05:38:40;4.70;99.90
29241;DHT22;16268;49.880;8.648;2022-12-07T05:41:07;4.70;99.90
29241;DHT22;16268;49.880;8.648;2022-12-07T05:43:53;4.70;99.90
29241;DHT22;16268;49.880;8.648;2022-12-07T05:46:19;4.70;99.90
29241;DHT22;16268;49.880;8.648;2022-12-07T05:48:45;4.70;99.90
29241;DHT22;16268;49.880;8.648;2022-12-07T05:51:10;4.80;99.90
29241;DHT22;16268;49.880;8.648;2022-12-07T05:53:36;4.70;99.90
29241;DHT22;16268;49.880;8.648;2022-12-07T05:56:01;4.70;99.90
29241;DHT22;16268;49.880;8.648;2022-12-07T05:58:27;4.70;99.90
29241;DHT22;16268;49.880;8.648;2022-12-07T06:01:11;4.70;99.90
29241;DHT22;16268;49.880;8.648;2022-12-07T06:03:36;4.70;99.90
29241;DHT22;16268;49.880;8.648;2022-12-07T06:06:02;4.80;99.90
29241;DHT22;16268;49.880;8.648;2022-12-07T06:08:28;4.80;99.90
29241;DHT22;16268;49.880;8.648;2022-12-07T06:10:56;4.80;99.90
29241;DHT22;16268;49.880;8.648;2022-12-07T06:13:40;4.80;99.90
29241;DHT22;16268;49.880;8.648;2022-12-07T06:16:06;4.80;99.90
29241;DHT22;16268;49.880;8.648;2022-12-07T06:18:32;4.90;99.90
29241;DHT22;16268;49.880;8.648;2022-12-07T06:20:58;4.80;99.90
29241;DHT22;16268;49.880;8.648;2022-12-07T06:23:23;4.80;99.90
29241;DHT22;16268;49.880;8.648;2022-12-07T06:25:49;4.80;99.90
29241;DHT22;16268;49.880;8.648;2022-12-07T06:28:14;4.90;99.90
29241;DHT22;16268;49.880;8.648;2022-12-07T06:30:40;4.90;99.90
29241;DHT22;16268;49.880;8.648;2022-12-07T06:33:05;4.90;99.90
29241;DHT22;16268;49.880;8.648;2022-12-07T06:35:32;4.90;99.90
29241;DHT22;16268;49.880;8.648;2022-12-07T06:37:58;4.90;99.90
29241;DHT22;16268;49.880;8.648;2022-12-07T06:40:23;4.90;99.90
29241;DHT22;16268;49.880;8.648;2022-12-07T06:42:49;4.90;99.90
29241;DHT22;16268;49.880;8.648;2022-12-07T06:45:15;4.90;99.90
29241;DHT22;16268;49.880;8.648;2022-12-07T06:47:40;4.90;99.90
29241;DHT22;16268;49.880;8.648;2022-12-07T06:50:06;4.90;99.90
29241;DHT22;16268;49.880;8.648;2022-12-07T06:52:33;4.90;99.90
29241;DHT22;16268;49.880;8.648;2022-12-07T06:54:59;4.90;99.90
29241;DHT22;16268;49.880;8.648;2022-12-07T06:57:25;4.90;99.90
29241;DHT22;16268;49.880;8.648;2022-12-07T06:59:50;4.90;99.90
29241;DHT22;16268;49.880;8.648;2022-12-07T07:02:16;4.90;99.90
29241;DHT22;16268;49.880;8.648;2022-12-07T07:04:42;5.00;99.90
29241;DHT22;16268;49.880;8.648;2022-12-07T07:07:08;4.90;99.90
29241;DHT22;16268;49.880;8.648;2022-12-07T07:09:33;4.90;99.90
29241;DHT22;16268;49.880;8.648;2022-12-07T07:12:02;4.90;99.90
29241;DHT22;16268;49.880;8.648;2022-12-07T07:14:27;4.90;99.90
29241;DHT22;16268;49.880;8.648;2022-12-07T07:16:53;4.90;99.90
29241;DHT22;16268;49.880;8.648;2022-12-07T07:19:18;4.90;99.90
29241;DHT22;16268;49.880;8.648;2022-12-07T07:21:44;4.90;99.90
29241;DHT22;16268;49.880;8.648;2022-12-07T07:24:09;4.90;99.90
29241;DHT22;16268;49.880;8.648;2022-12-07T07:26:35;4.90;99.90
29241;DHT22;16268;49.880;8.648;2022-12-07T07:29:00;5.00;99.90
29241;DHT22;16268;49.880;8.648;2022-12-07T07:31:26;5.00;99.90
29241;DHT22;16268;49.880;8.648;2022-12-07T07:33:52;5.10;99.90
29241;DHT22;16268;49.880;8.648;2022-12-07T07:36:17;5.00;99.90
29241;DHT22;16268;49.880;8.648;2022-12-07T07:38:43;5.00;99.90
29241;DHT22;16268;49.880;8.648;2022-12-07T07:41:09;5.00;99.90
29241;DHT22;16268;49.880;8.648;2022-12-07T07:43:34;5.10;99.90
29241;DHT22;16268;49.880;8.648;2022-12-07T07:46:03;5.10;99.90
29241;DHT22;16268;49.880;8.648;2022-12-07T07:48:30;5.10;99.90
29241;DHT22;16268;49.880;8.648;2022-12-07T07:50:55;5.10;99.90
29241;DHT22;16268;49.880;8.648;2022-12-07T07:53:21;5.20;99.90
29241;DHT22;16268;49.880;8.648;2022-12-07T07:55:53;5.20;99.90
29241;DHT22;16268;49.880;8.648;2022-12-07T07:58:21;5.20;99.90
29241;DHT22;16268;49.880;8.648;2022-12-07T08:00:46;5.20;99.90
29241;DHT22;16268;49.880;8.648;2022-12-07T08:03:12;5.30;99.90
29241;DHT22;16268;49.880;8.648;2022-12-07T08:05:38;5.30;99.90
29241;DHT22;16268;49.880;8.648;2022-12-07T08:08:04;5.40;99.90
29241;DHT22;16268;49.880;8.648;2022-12-07T08:10:30;5.40;99.90
29241;DHT22;16268;49.880;8.648;2022-12-07T08:12:58;5.40;99.90
29241;DHT22;16268;49.880;8.648;2022-12-07T08:15:46;5.40;99.90
29241;DHT22;16268;49.880;8.648;2022-12-07T08:18:13;5.50;99.90
29241;DHT22;16268;49.880;8.648;2022-12-07T08:20:42;5.50;99.90
29241;DHT22;16268;49.880;8.648;2022-12-07T08:23:08;5.50;99.90
29241;DHT22;16268;49.880;8.648;2022-12-07T08:25:34;5.50;99.90
29241;DHT22;16268;49.880;8.648;2022-12-07T08:28:01;5.60;99.90
29241;DHT22;16268;49.880;8.648;2022-12-07T08:30:27;5.70;99.90
29241;DHT22;16268;49.880;8.648;2022-12-07T08:32:53;5.70;99.90
29241;DHT22;16268;49.880;8.648;2022-12-07T08:35:19;5.80;99.90
29241;DHT22;16268;49.880;8.648;2022-12-07T08:37:44;5.80;99.90
29241;DHT22;16268;49.880;8.648;2022-12-07T08:40:12;5.80;99.90
29241;DHT22;16268;49.880;8.648;2022-12-07T08:42:48;5.80;99.90
29241;DHT22;16268;49.880;8.648;2022-12-07T08:45:15;5.90;99.90
29241;DHT22;16268;49.880;8.648;2022-12-07T08:47:46;6.00;99.90
29241;DHT22;16268;49.880;8.648;2022-12-07T08:50:13;6.00;99.90
29241;DHT22;16268;49.880;8.648;2022-12-07T08:52:40;5.90;99.90
29241;DHT22;16268;49.880;8.648;2022-12-07T08:55:10;5.80;99.90
29241;DHT22;16268;49.880;8.648;2022-12-07T08:57:36;5.70;99.90
29241;DHT22;16268;49.880;8.648;2022-12-07T09:00:04;5.60;99.90
29241;DHT22;16268;49.880;8.648;2022-12-07T09:02:33;5.60;99.90
29241;DHT22;16268;49.880;8.648;2022-12-07T09:04:58;5.60;99.90
29241;DHT22;16268;49.880;8.648;2022-12-07T09:07:25;5.70;99.90
29241;DHT22;16268;49.880;8.648;2022-12-07T09:09:51;5.70;99.90
29241;DHT22;16268;49.880;8.648;2022-12-07T09:12:17;5.70;99.90
29241;DHT22;16268;49.880;8.648;2022-12-07T09:14:43;5.80;99.90
29241;DHT22;16268;49.880;8.648;2022-12-07T09:17:10;5.90;99.90
29241;DHT22;16268;49.880;8.648;2022-12-07T09:19:36;6.10;99.90
29241;DHT22;16268;49.880;8.648;2022-12-07T09:22:03;6.20;99.90
29241;DHT22;16268;49.880;8.648;2022-12-07T09:24:33;6.30;99.90
29241;DHT22;16268;49.880;8.648;2022-12-07T09:26:59;6.30;99.90
29241;DHT22;16268;49.880;8.648;2022-12-07T09:29:24;6.30;99.90
29241;DHT22;16268;49.880;8.648;2022-12-07T09:31:53;6.40;99.90
29241;DHT22;16268;49.880;8.648;2022-12-07T09:34:19;6.60;99.90
29241;DHT22;16268;49.880;8.648;2022-12-07T09:36:45;7.10;99.90
29241;DHT22;16268;49.880;8.648;2022-12-07T09:39:11;7.70;99.90
29241;DHT22;16268;49.880;8.648;2022-12-07T09:41:42;8.10;99.90
29241;DHT22;16268;49.880;8.648;2022-12-07T09:44:13;8.30;99.90
29241;DHT22;16268;49.880;8.648;2022-12-07T09:46:42;8.50;99.90
29241;DHT22;16268;49.880;8.648;2022-12-07T09:49:23;8.40;99.90
29241;DHT22;16268;49.880;8.648;2022-12-07T09:52:24;8.40;99.90
29241;DHT22;16268;49.880;8.648;2022-12-07T09:54:48;8.10;99.90
29241;DHT22;16268;49.880;8.648;2022-12-07T09:57:14;7.80;99.90
29241;DHT22;16268;49.880;8.648;2022-12-07T09:59:40;7.80;99.90
29241;DHT22;16268;49.880;8.648;2022-12-07T10:02:34;7.50;99.90
29241;DHT22;16268;49.880;8.648;2022-12-07T10:05:01;7.30;99.90
29241;DHT22;16268;49.880;8.648;2022-12-07T10:07:26;7.20;99.90
29241;DHT22;16268;49.880;8.648;2022-12-07T10:09:52;7.10;99.90
29241;DHT22;16268;49.880;8.648;2022-12-07T10:12:18;7.10;99.90
29241;DHT22;16268;49.880;8.648;2022-12-07T10:15:00;7.00;99.90
29241;DHT22;16268;49.880;8.648;2022-12-07T10:17:37;6.90;99.90
29241;DHT22;16268;49.880;8.648;2022-12-07T10:20:25;6.90;99.90
29241;DHT22;16268;49.880;8.648;2022-12-07T10:23:00;6.90;99.90
29241;DHT22;16268;49.880;8.648;2022-12-07T10:25:32;6.80;99.90
29241;DHT22;16268;49.880;8.648;2022-12-07T10:28:00;6.70;99.90
29241;DHT22;16268;49.880;8.648;2022-12-07T10:30:27;6.60;99.90
29241;DHT22;16268;49.880;8.648;2022-12-07T10:32:52;6.50;99.90
29241;DHT22;16268;49.880;8.648;2022-12-07T10:35:27;6.40;99.90
29241;DHT22;16268;49.880;8.648;2022-12-07T10:37:54;6.50;99.90
29241;DHT22;16268;49.880;8.648;2022-12-07T10:40:31;6.60;99.90
29241;DHT22;16268;49.880;8.648;2022-12-07T10:43:25;6.70;99.90
29241;DHT22;16268;49.880;8.648;2022-12-07T10:48:22;7.20;99.90
29241;DHT22;16268;49.880;8.648;2022-12-07T10:51:18;7.40;99.90
29241;DHT22;16268;49.880;8.648;2022-12-07T10:53:53;7.60;99.90
29241;DHT22;16268;49.880;8.648;2022-12-07T10:56:37;7.60;99.90
29241;DHT22;16268;49.880;8.648;2022-12-07T10:59:20;7.70;99.90
29241;DHT22;16268;49.880;8.648;2022-12-07T11:05:02;7.90;99.90
29241;DHT22;16268;49.880;8.648;2022-12-07T11:07:47;7.90;99.90
29241;DHT22;16268;49.880;8.648;2022-12-07T11:13:12;8.00;99.90
29241;DHT22;16268;49.880;8.648;2022-12-07T11:16:16;8.20;99.90
29241;DHT22;16268;49.880;8.648;2022-12-07T11:24:18;8.40;99.90
29241;DHT22;16268;49.880;8.648;2022-12-07T11:32:25;7.90;99.90
29241;DHT22;16268;49.880;8.648;2022-12-07T11:35:08;7.70;99.90
29241;DHT22;16268;49.880;8.648;2022-12-07T11:37:36;7.60;99.90
29241;DHT22;16268;49.880;8.648;2022-12-07T11:40:24;7.60;99.90
29241;DHT22;16268;49.880;8.648;2022-12-07T11:42:59;7.50;99.90
29241;DHT22;16268;49.880;8.648;2022-12-07T11:45:31;7.30;99.90
29241;DHT22;16268;49.880;8.648;2022-12-07T11:48:03;7.30;99.90
29241;DHT22;16268;49.880;8.648;2022-12-07T11:50:52;7.20;99.90
29241;DHT22;16268;49.880;8.648;2022-12-07T11:53:33;7.40;99.90
29241;DHT22;16268;49.880;8.648;2022-12-07T11:56:20;7.50;99.90
29241;DHT22;16268;49.880;8.648;2022-12-07T11:58:57;7.60;99.90
29241;DHT22;16268;49.880;8.648;2022-12-07T12:06:44;7.80;99.90
29241;DHT22;16268;49.880;8.648;2022-12-07T12:09:20;7.70;99.90
29241;DHT22;16268;49.880;8.648;2022-12-07T12:20:43;7.60;99.90
29241;DHT22;16268;49.880;8.648;2022-12-07T12:23:27;7.50;99.90
29241;DHT22;16268;49.880;8.648;2022-12-07T12:25:57;7.60;99.90
29241;DHT22;16268;49.880;8.648;2022-12-07T12:28:39;7.80;99.90
29241;DHT22;16268;49.880;8.648;2022-12-07T12:33:31;7.80;99.90
29241;DHT22;16268;49.880;8.648;2022-12-07T12:36:28;7.80;99.90
29241;DHT22;16268;49.880;8.648;2022-12-07T12:46:57;7.90;99.90
29241;DHT22;16268;49.880;8.648;2022-12-07T12:51:58;7.70;99.90
29241;DHT22;16268;49.880;8.648;2022-12-07T12:54:27;7.70;99.90
29241;DHT22;16268;49.880;8.648;2022-12-07T13:15:46;8.10;99.90
29241;DHT22;16268;49.880;8.648;2022-12-07T13:26:21;7.60;99.90
29241;DHT22;16268;49.880;8.648;2022-12-07T13:28:52;7.50;99.90
29241;DHT22;16268;49.880;8.648;2022-12-07T13:33:58;7.30;99.90
29241;DHT22;16268;49.880;8.648;2022-12-07T13:36:31;7.30;99.90
29241;DHT22;16268;49.880;8.648;2022-12-07T13:41:41;7.40;99.90
29241;DHT22;16268;49.880;8.648;2022-12-07T13:44:15;7.40;99.90
29241;DHT22;16268;49.880;8.648;2022-12-07T13:49:24;7.60;99.90
29241;DHT22;16268;49.880;8.648;2022-12-07T13:51:51;7.70;99.90
29241;DHT22;16268;49.880;8.648;2022-12-07T13:54:18;7.70;99.90
29241;DHT22;16268;49.880;8.648;2022-12-07T13:56:51;7.80;99.90
29241;DHT22;16268;49.880;8.648;2022-12-07T13:59:20;7.80;99.90
29241;DHT22;16268;49.880;8.648;2022-12-07T14:01:47;7.70;99.90
29241;DHT22;16268;49.880;8.648;2022-12-07T14:04:31;7.60;99.90
29241;DHT22;16268;49.880;8.648;2022-12-07T14:06:57;7.60;99.90
29241;DHT22;16268;49.880;8.648;2022-12-07T14:09:25;7.60;99.90
29241;DHT22;16268;49.880;8.648;2022-12-07T14:11:53;7.60;99.90
29241;DHT22;16268;49.880;8.648;2022-12-07T14:14:28;7.60;99.90
29241;DHT22;16268;49.880;8.648;2022-12-07T14:17:15;7.60;99.90
29241;DHT22;16268;49.880;8.648;2022-12-07T14:19:45;7.60;99.90
29241;DHT22;16268;49.880;8.648;2022-12-07T14:22:33;7.60;99.90
29241;DHT22;16268;49.880;8.648;2022-12-07T14:27:34;7.50;99.90
29241;DHT22;16268;49.880;8.648;2022-12-07T14:30:03;7.50;99.90
29241;DHT22;16268;49.880;8.648;2022-12-07T14:32:30;7.50;99.90
29241;DHT22;16268;49.880;8.648;2022-12-07T14:35:01;7.50;99.90
29241;DHT22;16268;49.880;8.648;2022-12-07T14:37:30;7.60;99.90
29241;DHT22;16268;49.880;8.648;2022-12-07T14:39:56;7.50;99.90
29241;DHT22;16268;49.880;8.648;2022-12-07T14:42:24;7.50;99.90
29241;DHT22;16268;49.880;8.648;2022-12-07T14:44:50;7.50;99.90
29241;DHT22;16268;49.880;8.648;2022-12-07T14:47:15;7.50;99.90
29241;DHT22;16268;49.880;8.648;2022-12-07T14:49:41;7.40;99.90
29241;DHT22;16268;49.880;8.648;2022-12-07T14:52:13;7.40;99.90
29241;DHT22;16268;49.880;8.648;2022-12-07T14:54:39;7.30;99.90
29241;DHT22;16268;49.880;8.648;2022-12-07T14:57:08;7.30;99.90
29241;DHT22;16268;49.880;8.648;2022-12-07T14:59:34;7.30;99.90
29241;DHT22;16268;49.880;8.648;2022-12-07T15:02:00;7.30;99.90
29241;DHT22;16268;49.880;8.648;2022-12-07T15:04:25;7.30;99.90
29241;DHT22;16268;49.880;8.648;2022-12-07T15:06:59;7.30;99.90
29241;DHT22;16268;49.880;8.648;2022-12-07T15:09:25;7.30;99.90
29241;DHT22;16268;49.880;8.648;2022-12-07T15:11:51;7.30;99.90
29241;DHT22;16268;49.880;8.648;2022-12-07T15:14:16;7.30;99.90
29241;DHT22;16268;49.880;8.648;2022-12-07T15:16:42;7.20;99.90
29241;DHT22;16268;49.880;8.648;2022-12-07T15:19:18;7.30;99.90
29241;DHT22;16268;49.880;8.648;2022-12-07T15:21:45;7.30;99.90
29241;DHT22;16268;49.880;8.648;2022-12-07T15:24:11;7.20;99.90
29241;DHT22;16268;49.880;8.648;2022-12-07T15:26:38;7.10;99.90
29241;DHT22;16268;49.880;8.648;2022-12-07T15:29:04;7.00;99.90
29241;DHT22;16268;49.880;8.648;2022-12-07T15:31:30;6.90;99.90
29241;DHT22;16268;49.880;8.648;2022-12-07T15:33:55;6.80;99.90
29241;DHT22;16268;49.880;8.648;2022-12-07T15:36:23;6.60;99.90
29241;DHT22;16268;49.880;8.648;2022-12-07T15:38:49;6.50;99.90
29241;DHT22;16268;49.880;8.648;2022-12-07T15:41:15;6.30;99.90
29241;DHT22;16268;49.880;8.648;2022-12-07T15:43:42;6.40;99.90
29241;DHT22;16268;49.880;8.648;2022-12-07T15:46:37;6.50;99.90
29241;DHT22;16268;49.880;8.648;2022-12-07T15:49:07;6.40;99.90
29241;DHT22;16268;49.880;8.648;2022-12-07T15:51:34;6.40;99.90
29241;DHT22;16268;49.880;8.648;2022-12-07T15:53:59;6.50;99.90
29241;DHT22;16268;49.880;8.648;2022-12-07T15:56:25;6.40;99.90
29241;DHT22;16268;49.880;8.648;2022-12-07T15:58:50;6.40;99.90
29241;DHT22;16268;49.880;8.648;2022-12-07T16:01:19;6.30;99.90
29241;DHT22;16268;49.880;8.648;2022-12-07T16:03:45;6.40;99.90
29241;DHT22;16268;49.880;8.648;2022-12-07T16:06:11;6.50;99.90
29241;DHT22;16268;49.880;8.648;2022-12-07T16:08:42;6.60;99.90
29241;DHT22;16268;49.880;8.648;2022-12-07T16:11:09;6.70;99.90
29241;DHT22;16268;49.880;8.648;2022-12-07T16:13:34;6.80;99.90
29241;DHT22;16268;49.880;8.648;2022-12-07T16:16:05;6.80;99.90
29241;DHT22;16268;49.880;8.648;2022-12-07T16:18:31;6.70;99.90
29241;DHT22;16268;49.880;8.648;2022-12-07T16:20:57;6.60;99.90
29241;DHT22;16268;49.880;8.648;2022-12-07T16:23:22;6.70;99.90
29241;DHT22;16268;49.880;8.648;2022-12-07T16:25:48;6.60;99.90
29241;DHT22;16268;49.880;8.648;2022-12-07T16:28:14;6.60;99.90
29241;DHT22;16268;49.880;8.648;2022-12-07T16:30:40;6.40;99.90
29241;DHT22;16268;49.880;8.648;2022-12-07T16:33:05;6.40;99.90
29241;DHT22;16268;49.880;8.648;2022-12-07T16:35:31;6.30;99.90
29241;DHT22;16268;49.880;8.648;2022-12-07T16:37:56;6.30;99.90
29241;DHT22;16268;49.880;8.648;2022-12-07T16:40:22;6.30;99.90
29241;DHT22;16268;49.880;8.648;2022-12-07T16:42:48;6.40;99.90
29241;DHT22;16268;49.880;8.648;2022-12-07T16:45:13;6.50;99.90
29241;DHT22;16268;49.880;8.648;2022-12-07T16:47:39;6.50;99.90
29241;DHT22;16268;49.880;8.648;2022-12-07T16:50:06;6.40;99.90
29241;DHT22;16268;49.880;8.648;2022-12-07T16:52:33;6.40;99.90
29241;DHT22;16268;49.880;8.648;2022-12-07T16:54:58;6.40;99.90
29241;DHT22;16268;49.880;8.648;2022-12-07T16:57:24;6.40;99.90
29241;DHT22;16268;49.880;8.648;2022-12-07T16:59:50;6.40;99.90
29241;DHT22;16268;49.880;8.648;2022-12-07T17:02:16;6.40;99.90
29241;DHT22;16268;49.880;8.648;2022-12-07T17:04:42;6.40;99.90
29241;DHT22;16268;49.880;8.648;2022-12-07T17:07:08;6.40;99.90
29241;DHT22;16268;49.880;8.648;2022-12-07T17:09:34;6.40;99.90
29241;DHT22;16268;49.880;8.648;2022-12-07T17:12:01;6.40;99.90
29241;DHT22;16268;49.880;8.648;2022-12-07T17:14:26;6.40;99.90
29241;DHT22;16268;49.880;8.648;2022-12-07T17:17:11;6.40;99.90
29241;DHT22;16268;49.880;8.648;2022-12-07T17:19:36;6.40;99.90
29241;DHT22;16268;49.880;8.648;2022-12-07T17:22:02;6.40;99.90
29241;DHT22;16268;49.880;8.648;2022-12-07T17:24:28;6.40;99.90
29241;DHT22;16268;49.880;8.648;2022-12-07T17:26:54;6.40;99.90
29241;DHT22;16268;49.880;8.648;2022-12-07T17:29:19;6.50;99.90
29241;DHT22;16268;49.880;8.648;2022-12-07T17:31:46;6.40;99.90